createdAt,value
2018-08-11T02:03:27.137Z,99851.00
2018-08-11T02:05:32.685Z,99842.00
2018-08-11T02:07:38.694Z,99837.00
2018-08-11T02:09:45.234Z,99861.00
2018-08-11T02:11:52.949Z,99861.00
2018-08-11T02:14:00.229Z,99857.00
2018-08-11T02:16:06.752Z,99841.00
2018-08-11T02:18:13.475Z,99857.00
2018-08-11T02:20:19.963Z,99858.00
2018-08-11T02:22:24.402Z,99867.00
2018-08-11T02:24:28.859Z,99854.00
2018-08-11T02:26:34.146Z,99860.00
2018-08-11T02:28:38.623Z,99845.00
2018-08-11T02:30:43.066Z,99857.00
2018-08-11T02:32:47.672Z,99862.00
2018-08-11T02:34:52.116Z,99844.00
2018-08-11T02:36:56.548Z,99844.00
2018-08-11T02:39:01.087Z,99852.00
2018-08-11T02:41:05.787Z,99851.00
2018-08-11T02:43:10.305Z,99849.00
2018-08-11T02:45:16.527Z,99844.00
2018-08-11T02:47:20.973Z,99838.00
2018-08-11T02:49:25.558Z,99852.00
2018-08-11T02:51:30.019Z,99851.00
2018-08-11T02:53:34.550Z,99860.00
2018-08-11T02:55:38.966Z,99853.00
2018-08-11T02:57:43.505Z,99855.00
2018-08-11T02:59:47.973Z,99850.00
2018-08-11T03:01:53.758Z,99851.00
2018-08-11T03:03:58.210Z,99852.00
2018-08-11T03:06:02.750Z,99846.00
2018-08-11T03:08:07.274Z,99837.00
2018-08-11T03:10:12.415Z,99856.00
2018-08-11T03:12:17.118Z,99861.00
2018-08-11T03:14:21.590Z,99869.00
2018-08-11T03:16:26.022Z,99870.00
2018-08-11T03:18:30.473Z,99863.00
2018-08-11T03:20:34.947Z,99871.00
2018-08-11T03:22:39.462Z,99864.00
2018-08-11T03:24:43.974Z,99879.00
2018-08-11T03:26:48.455Z,99872.00
2018-08-11T03:28:52.915Z,99882.00
2018-08-11T03:30:57.386Z,99870.00
2018-08-11T03:33:01.854Z,99871.00
2018-08-11T03:35:07.001Z,99874.00
2018-08-11T03:37:11.505Z,99876.00
2018-08-11T03:39:15.986Z,99884.00
2018-08-11T03:41:20.435Z,99876.00
2018-08-11T03:43:24.873Z,99886.00
2018-08-11T03:45:29.342Z,99877.00
2018-08-11T03:47:33.802Z,99892.00
2018-08-11T03:49:38.303Z,99891.00
2018-08-11T03:51:42.730Z,99889.00
2018-08-11T03:53:47.174Z,99898.00
2018-08-11T03:55:51.679Z,99892.00
2018-08-11T03:57:56.196Z,99898.00
2018-08-11T04:00:03.956Z,99898.00
2018-08-11T04:02:10.576Z,99898.00
2018-08-11T04:04:17.892Z,99906.00
2018-08-11T04:06:26.358Z,99910.00
2018-08-11T04:08:32.986Z,99915.00
2018-08-11T04:10:37.867Z,99913.00
2018-08-11T04:12:43.472Z,99914.00
2018-08-11T04:14:48.039Z,99910.00
2018-08-11T04:16:52.438Z,99913.00
2018-08-11T04:18:56.915Z,99921.00
2018-08-11T04:21:01.440Z,99928.00
2018-08-11T04:23:05.914Z,99913.00
2018-08-11T04:25:10.738Z,99926.00
2018-08-11T04:27:15.205Z,99928.00
2018-08-11T04:29:19.674Z,99926.00
2018-08-11T04:31:24.170Z,99931.00
2018-08-11T04:33:28.611Z,99928.00
2018-08-11T04:35:33.333Z,99935.00
2018-08-11T04:37:37.755Z,99938.00
2018-08-11T04:39:42.194Z,99932.00
2018-08-11T04:41:46.660Z,99943.00
2018-08-11T04:43:51.089Z,99949.00
2018-08-11T04:45:55.563Z,99938.00
2018-08-11T04:47:59.990Z,99940.00
2018-08-11T04:50:04.942Z,99940.00
2018-08-11T04:52:09.367Z,99948.00
2018-08-11T04:54:13.810Z,99962.00
2018-08-11T04:56:18.303Z,99951.00
2018-08-11T04:58:22.713Z,99953.00
2018-08-11T05:00:27.230Z,99959.00
2018-08-11T05:02:31.654Z,99962.00
2018-08-11T05:04:36.114Z,99957.00
2018-08-11T05:06:40.533Z,99956.00
2018-08-11T05:08:45.028Z,99958.00
2018-08-11T05:10:49.558Z,99955.00
2018-08-11T05:12:53.992Z,99951.00
2018-08-11T05:14:58.761Z,99953.00
2018-08-11T05:17:03.325Z,99964.00
2018-08-11T05:19:07.946Z,99963.00
2018-08-11T05:21:12.433Z,99965.00
2018-08-11T05:23:16.908Z,99954.00
2018-08-11T05:25:21.381Z,99959.00
2018-08-11T05:27:25.869Z,99967.00
2018-08-11T05:29:30.352Z,99966.00
2018-08-11T05:31:34.858Z,99963.00
2018-08-11T05:33:39.322Z,99962.00
2018-08-11T05:35:43.846Z,99966.00
2018-08-11T05:37:48.306Z,99971.00
2018-08-11T05:39:52.854Z,99968.00
2018-08-11T05:41:57.423Z,99967.00
2018-08-11T05:44:02.010Z,99975.00
2018-08-11T05:46:06.482Z,99975.00
2018-08-11T05:48:10.899Z,99980.00
2018-08-11T05:50:15.344Z,99975.00
2018-08-11T05:52:20.361Z,99983.00
2018-08-11T05:54:24.807Z,99983.00
2018-08-11T05:56:29.297Z,99980.00
2018-08-11T05:58:33.770Z,99988.00
2018-08-11T06:00:38.259Z,99993.00
2018-08-11T06:02:42.837Z,99992.00
2018-08-11T06:04:47.333Z,99995.00
2018-08-11T06:06:51.861Z,99993.00
2018-08-11T06:08:56.468Z,99993.00
2018-08-11T06:11:00.994Z,99999.00
2018-08-11T06:13:05.517Z,100002.00
2018-08-11T06:15:10.044Z,99996.00
2018-08-11T06:17:14.489Z,100008.00
2018-08-11T06:19:19.705Z,100002.00
2018-08-11T06:21:24.184Z,100011.00
2018-08-11T06:23:29.010Z,100008.00
2018-08-11T06:25:33.535Z,100008.00
2018-08-11T06:27:38.075Z,100010.00
2018-08-11T06:29:42.485Z,100010.00
2018-08-11T06:31:46.964Z,100013.00
2018-08-11T06:33:51.533Z,100017.00
2018-08-11T06:35:56.001Z,100018.00
2018-08-11T06:38:01.570Z,100034.00
2018-08-11T06:40:07.154Z,100016.00
2018-08-11T06:42:11.799Z,100014.00
2018-08-11T06:44:16.251Z,100018.00
2018-08-11T06:46:20.792Z,100012.00
2018-08-11T06:48:25.214Z,100012.00
2018-08-11T06:50:30.177Z,100008.00
2018-08-11T06:52:34.714Z,100012.00
2018-08-11T06:54:39.429Z,100014.00
2018-08-11T06:56:43.872Z,100022.00
2018-08-11T06:58:48.587Z,100018.00
2018-08-11T07:00:53.050Z,100022.00
2018-08-11T07:02:57.561Z,100019.00
2018-08-11T07:05:01.982Z,100026.00
2018-08-11T07:07:08.786Z,100027.00
2018-08-11T07:09:13.586Z,100028.00
2018-08-11T07:11:19.300Z,100035.00
2018-08-11T07:13:27.188Z,100025.00
2018-08-11T07:15:35.078Z,100029.00
2018-08-11T07:17:39.602Z,100039.00
2018-08-11T07:19:44.137Z,100034.00
2018-08-11T07:21:48.998Z,100035.00
2018-08-11T07:23:53.438Z,100036.00
2018-08-11T07:25:58.038Z,100035.00
2018-08-11T07:28:02.506Z,100043.00
2018-08-11T07:30:06.993Z,100042.00
2018-08-11T07:32:11.485Z,100043.00
2018-08-11T07:34:15.949Z,100039.00
2018-08-11T07:36:20.569Z,100034.00
2018-08-11T07:38:25.018Z,100043.00
2018-08-11T07:40:29.566Z,100034.00
2018-08-11T07:42:35.145Z,100040.00
2018-08-11T07:44:39.630Z,100035.00
2018-08-11T07:46:44.118Z,100047.00
2018-08-11T07:48:48.537Z,100050.00
2018-08-11T07:50:54.378Z,100052.00
2018-08-11T07:53:00.021Z,100064.00
2018-08-11T07:55:05.534Z,100069.00
2018-08-11T07:57:11.529Z,100063.00
2018-08-11T07:59:18.239Z,100073.00
2018-08-11T08:01:28.307Z,100073.00
2018-08-11T08:03:40.976Z,100066.00
2018-08-11T08:05:45.482Z,100074.00
2018-08-11T08:07:52.886Z,100079.00
2018-08-11T08:09:57.309Z,100084.00
2018-08-11T08:12:02.018Z,100088.00
2018-08-11T08:14:06.561Z,100088.00
2018-08-11T08:16:11.109Z,100086.00
2018-08-11T08:18:15.687Z,100092.00
2018-08-11T08:20:20.154Z,100093.00
2018-08-11T08:22:25.008Z,100077.00
2018-08-11T08:24:29.852Z,100083.00
2018-08-11T08:26:35.135Z,100088.00
2018-08-11T08:28:39.522Z,100084.00
2018-08-11T08:30:43.941Z,100085.00
2018-08-11T08:32:48.602Z,100080.00
2018-08-11T08:34:53.169Z,100097.00
2018-08-11T08:36:57.653Z,100089.00
2018-08-11T08:39:02.136Z,100090.00
2018-08-11T08:41:09.348Z,100092.00
2018-08-11T08:43:14.043Z,100085.00
2018-08-11T08:45:18.468Z,100089.00
2018-08-11T08:47:22.997Z,100092.00
2018-08-11T08:49:27.522Z,100086.00
2018-08-11T08:51:32.096Z,100080.00
2018-08-11T08:53:36.610Z,100086.00
2018-08-11T08:55:41.079Z,100083.00
2018-08-11T08:57:45.637Z,100084.00
2018-08-11T08:59:50.059Z,100086.00
2018-08-11T09:01:54.587Z,100083.00
2018-08-11T09:04:02.533Z,100078.00
2018-08-11T09:06:08.562Z,100083.00
2018-08-11T09:08:17.476Z,100077.00
2018-08-11T09:10:30.301Z,100082.00
2018-08-11T09:12:37.581Z,100068.00
2018-08-11T09:14:42.528Z,100065.00
2018-08-11T09:16:47.061Z,100079.00
2018-08-11T09:18:52.094Z,100079.00
2018-08-11T09:20:56.899Z,100084.00
2018-08-11T09:23:01.658Z,100085.00
2018-08-11T09:25:06.239Z,100080.00
2018-08-11T09:27:11.549Z,100093.00
2018-08-11T09:29:16.139Z,100097.00
2018-08-11T09:31:21.082Z,100084.00
2018-08-11T09:33:25.609Z,100084.00
2018-08-11T09:35:30.051Z,100091.00
2018-08-11T09:37:35.750Z,100086.00
2018-08-11T09:39:40.359Z,100093.00
2018-08-11T09:41:45.074Z,100094.00
2018-08-11T09:43:49.652Z,100096.00
2018-08-11T09:45:54.197Z,100090.00
2018-08-11T09:47:58.658Z,100100.00
2018-08-11T09:50:03.442Z,100099.00
2018-08-11T09:52:08.006Z,100095.00
2018-08-11T09:54:12.593Z,100095.00
2018-08-11T09:56:17.136Z,100097.00
2018-08-11T09:58:21.606Z,100093.00
2018-08-11T10:00:32.018Z,100089.00
2018-08-11T10:02:36.466Z,100100.00
2018-08-11T10:04:41.684Z,100090.00
2018-08-11T10:06:46.262Z,100091.00
2018-08-11T10:08:50.713Z,100087.00
2018-08-11T10:10:55.162Z,100098.00
2018-08-11T10:12:59.630Z,100093.00
2018-08-11T10:15:04.271Z,100085.00
2018-08-11T10:17:08.867Z,100098.00
2018-08-11T10:19:13.402Z,100091.00
2018-08-11T10:21:17.967Z,100096.00
2018-08-11T10:23:22.403Z,100091.00
2018-08-11T10:25:27.321Z,100097.00
2018-08-11T10:27:31.949Z,100086.00
2018-08-11T10:29:36.454Z,100085.00
2018-08-11T10:31:40.927Z,100098.00
2018-08-11T10:33:45.359Z,100088.00
2018-08-11T10:35:49.766Z,100093.00
2018-08-11T10:37:54.207Z,100084.00
2018-08-11T10:39:58.831Z,100097.00
2018-08-11T10:42:03.236Z,100097.00
2018-08-11T10:44:07.962Z,100099.00
2018-08-11T10:46:13.134Z,100098.00
2018-08-11T10:48:17.565Z,100093.00
2018-08-11T10:50:22.057Z,100099.00
2018-08-11T10:52:26.566Z,100104.00
2018-08-11T10:54:31.092Z,100103.00
2018-08-11T10:56:35.523Z,100096.00
2018-08-11T10:58:39.991Z,100102.00
2018-08-11T11:00:44.507Z,100100.00
2018-08-11T11:02:48.963Z,100102.00
2018-08-11T11:04:53.428Z,100111.00
2018-08-11T11:06:57.860Z,100107.00
2018-08-11T11:09:02.352Z,100111.00
2018-08-11T11:11:06.781Z,100087.00
2018-08-11T11:13:11.206Z,100102.00
2018-08-11T11:15:15.813Z,100090.00
2018-08-11T11:17:20.254Z,100097.00
2018-08-11T11:19:24.705Z,100087.00
2018-08-11T11:21:29.141Z,100096.00
2018-08-11T11:23:33.565Z,100087.00
2018-08-11T11:25:38.000Z,100096.00
2018-08-11T11:27:42.502Z,100091.00
2018-08-11T11:29:47.115Z,100093.00
2018-08-11T11:31:51.619Z,100088.00
2018-08-11T11:33:56.054Z,100091.00
2018-08-11T11:36:00.638Z,100091.00
2018-08-11T11:38:05.127Z,100081.00
2018-08-11T11:40:09.807Z,100096.00
2018-08-11T11:42:14.338Z,100087.00
2018-08-11T11:44:19.734Z,100090.00
2018-08-11T11:46:24.421Z,100088.00
2018-08-11T11:48:29.007Z,100080.00
2018-08-11T11:50:33.491Z,100105.00
2018-08-11T11:52:37.998Z,100092.00
2018-08-11T11:54:42.477Z,100089.00
2018-08-11T11:56:47.509Z,100086.00
2018-08-11T11:58:51.985Z,100087.00
2018-08-11T12:00:56.398Z,100085.00
2018-08-11T12:03:00.845Z,100089.00
2018-08-11T12:05:05.685Z,100086.00
2018-08-11T12:07:10.117Z,100082.00
2018-08-11T12:09:14.582Z,100085.00
2018-08-11T12:11:19.017Z,100085.00
2018-08-11T12:13:23.469Z,100091.00
2018-08-11T12:15:27.902Z,100085.00
2018-08-11T12:17:32.353Z,100091.00
2018-08-11T12:19:36.820Z,100080.00
2018-08-11T12:21:41.378Z,100084.00
2018-08-11T12:23:45.792Z,100081.00
2018-08-11T12:25:50.310Z,100086.00
2018-08-11T12:27:54.734Z,100085.00
2018-08-11T12:29:59.198Z,100091.00
2018-08-11T12:32:03.647Z,100089.00
2018-08-11T12:34:08.169Z,100088.00
2018-08-11T12:36:13.005Z,100091.00
2018-08-11T12:38:17.441Z,100094.00
2018-08-11T12:40:22.890Z,100093.00
2018-08-11T12:42:28.018Z,100084.00
2018-08-11T12:44:32.733Z,100084.00
2018-08-11T12:46:37.317Z,100086.00
2018-08-11T12:48:42.155Z,100070.00
2018-08-11T12:50:48.214Z,100084.00
2018-08-11T12:52:53.874Z,100087.00
2018-08-11T12:55:00.340Z,100087.00
2018-08-11T12:57:07.249Z,100082.00
2018-08-11T12:59:11.806Z,100088.00
2018-08-11T13:01:16.517Z,100082.00
2018-08-11T13:03:20.926Z,100076.00
2018-08-11T13:05:25.409Z,100076.00
2018-08-11T13:07:29.942Z,100077.00
2018-08-11T13:09:34.398Z,100091.00
2018-08-11T13:11:38.986Z,100079.00
2018-08-11T13:13:43.490Z,100079.00
2018-08-11T13:15:48.005Z,100082.00
2018-08-11T13:17:52.494Z,100081.00
2018-08-11T13:19:57.271Z,100076.00
2018-08-11T13:22:01.712Z,100087.00
2018-08-11T13:24:06.229Z,100087.00
2018-08-11T13:26:10.798Z,100078.00
2018-08-11T13:28:15.241Z,100075.00
2018-08-11T13:30:19.711Z,100082.00
2018-08-11T13:32:25.133Z,100088.00
2018-08-11T13:34:29.725Z,100075.00
2018-08-11T13:36:34.173Z,100074.00
2018-08-11T13:38:38.675Z,100064.00
2018-08-11T13:40:43.694Z,100067.00
2018-08-11T13:42:48.239Z,100067.00
2018-08-11T13:44:52.703Z,100078.00
2018-08-11T13:46:57.190Z,100066.00
2018-08-11T13:49:01.802Z,100062.00
2018-08-11T13:51:06.386Z,100063.00
2018-08-11T13:53:11.255Z,100053.00
2018-08-11T13:55:15.717Z,100062.00
2018-08-11T13:57:20.281Z,100058.00
2018-08-11T13:59:25.297Z,100060.00
2018-08-11T14:01:29.950Z,100064.00
2018-08-11T14:03:34.938Z,100056.00
2018-08-11T14:05:39.706Z,100042.00
2018-08-11T14:07:44.550Z,100046.00
2018-08-11T14:09:48.981Z,100040.00
2018-08-11T14:11:53.500Z,100042.00
2018-08-11T14:13:58.218Z,100046.00
2018-08-11T14:16:02.746Z,100041.00
2018-08-11T14:18:07.262Z,100042.00
2018-08-11T14:20:11.979Z,100035.00
2018-08-11T14:22:16.482Z,100045.00
2018-08-11T14:24:21.320Z,100051.00
2018-08-11T14:26:26.070Z,100054.00
2018-08-11T14:28:30.601Z,100039.00
2018-08-11T14:30:35.080Z,100042.00
2018-08-11T14:32:40.045Z,100047.00
2018-08-11T14:34:44.517Z,100051.00
2018-08-11T14:36:48.990Z,100047.00
2018-08-11T14:38:53.437Z,100061.00
2018-08-11T14:40:57.909Z,100050.00
2018-08-11T14:43:02.343Z,100045.00
2018-08-11T14:45:09.602Z,100042.00
2018-08-11T14:47:14.050Z,100038.00
2018-08-11T14:49:18.507Z,100042.00
2018-08-11T14:51:22.989Z,100045.00
2018-08-11T14:53:27.508Z,100046.00
2018-08-11T14:55:32.034Z,100042.00
2018-08-11T14:57:36.541Z,100045.00
2018-08-11T14:59:40.966Z,100039.00
2018-08-11T15:01:45.598Z,100045.00
2018-08-11T15:03:50.052Z,100041.00
2018-08-11T15:05:54.585Z,100042.00
2018-08-11T15:07:59.073Z,100057.00
2018-08-11T15:10:03.684Z,100045.00
2018-08-11T15:12:08.199Z,100035.00
2018-08-11T15:14:12.983Z,100034.00
2018-08-11T15:16:17.586Z,100034.00
2018-08-11T15:18:22.018Z,100039.00
2018-08-11T15:20:26.469Z,100049.00
2018-08-11T15:22:30.913Z,100043.00
2018-08-11T15:24:35.998Z,100042.00
2018-08-11T15:26:40.430Z,100047.00
2018-08-11T15:28:44.901Z,100037.00
2018-08-11T15:30:49.365Z,100045.00
2018-08-11T15:32:53.854Z,100043.00
2018-08-11T15:34:58.334Z,100052.00
2018-08-11T15:37:02.840Z,100046.00
2018-08-11T15:39:12.234Z,100045.00
2018-08-11T15:41:16.659Z,100039.00
2018-08-11T15:43:21.112Z,100048.00
2018-08-11T15:45:25.625Z,100047.00
2018-08-11T15:47:30.167Z,100030.00
2018-08-11T15:49:34.622Z,100045.00
2018-08-11T15:51:39.124Z,100048.00
2018-08-11T15:53:43.579Z,100048.00
2018-08-11T15:55:48.027Z,100051.00
2018-08-11T15:57:52.510Z,100046.00
2018-08-11T15:59:56.912Z,100042.00
2018-08-11T16:02:01.389Z,100053.00
2018-08-11T16:04:05.867Z,100058.00
2018-08-11T16:06:10.338Z,100050.00
2018-08-11T16:08:14.978Z,100054.00
2018-08-11T16:10:19.462Z,100046.00
2018-08-11T16:12:23.942Z,100049.00
2018-08-11T16:14:28.490Z,100049.00
2018-08-11T16:16:32.942Z,100044.00
2018-08-11T16:18:37.395Z,100050.00
2018-08-11T16:20:41.845Z,100047.00
2018-08-11T16:22:46.542Z,100049.00
2018-08-11T16:24:50.973Z,100051.00
2018-08-11T16:26:55.427Z,100038.00
2018-08-11T16:28:59.902Z,100049.00
2018-08-11T16:31:04.361Z,100051.00
2018-08-11T16:33:08.870Z,100054.00
2018-08-11T16:35:13.394Z,100047.00
2018-08-11T16:37:17.853Z,100053.00
2018-08-11T16:39:22.320Z,100047.00
2018-08-11T16:41:26.773Z,100038.00
2018-08-11T16:43:31.232Z,100043.00
2018-08-11T16:45:35.694Z,100036.00
2018-08-11T16:47:40.170Z,100046.00
2018-08-11T16:49:44.594Z,100041.00
2018-08-11T16:51:49.041Z,100042.00
2018-08-11T16:53:53.556Z,100036.00
2018-08-11T16:55:57.948Z,100038.00
2018-08-11T16:58:02.426Z,100042.00
2018-08-11T17:00:10.869Z,100039.00
2018-08-11T17:02:15.322Z,100037.00
2018-08-11T17:04:19.777Z,100044.00
2018-08-11T17:06:24.277Z,100052.00
2018-08-11T17:08:28.761Z,100047.00
2018-08-11T17:10:33.187Z,100034.00
2018-08-11T17:12:38.055Z,100032.00
2018-08-11T17:14:42.723Z,100034.00
2018-08-11T17:16:47.133Z,100036.00
2018-08-11T17:18:51.601Z,100031.00
2018-08-11T17:20:56.043Z,100029.00
2018-08-11T17:23:00.501Z,100023.00
2018-08-11T17:25:05.297Z,100037.00
2018-08-11T17:27:09.824Z,100029.00
2018-08-11T17:29:14.863Z,100027.00
2018-08-11T17:31:19.290Z,100028.00
2018-08-11T17:33:23.792Z,100024.00
2018-08-11T17:35:28.337Z,100022.00
2018-08-11T17:37:32.835Z,100024.00
2018-08-11T17:39:37.298Z,100018.00
2018-08-11T17:41:41.918Z,100024.00
2018-08-11T17:43:46.431Z,100029.00
2018-08-11T17:45:50.896Z,100021.00
2018-08-11T17:47:55.373Z,100021.00
2018-08-11T17:49:59.865Z,100020.00
2018-08-11T17:52:04.345Z,100016.00
2018-08-11T17:54:08.792Z,100014.00
2018-08-11T17:56:13.225Z,100018.00
2018-08-11T17:58:17.674Z,100016.00
2018-08-11T18:00:22.097Z,100024.00
2018-08-11T18:02:26.661Z,100016.00
2018-08-11T18:04:31.098Z,100015.00
2018-08-11T18:06:35.731Z,100015.00
2018-08-11T18:08:40.865Z,100020.00
2018-08-11T18:10:45.450Z,100019.00
2018-08-11T18:12:50.280Z,100017.00
2018-08-11T18:14:54.722Z,100021.00
2018-08-11T18:16:59.166Z,100024.00
2018-08-11T18:19:03.650Z,100024.00
2018-08-11T18:21:08.268Z,100024.00
2018-08-11T18:23:12.741Z,100012.00
2018-08-11T18:25:17.210Z,100014.00
2018-08-11T18:27:21.647Z,100022.00
2018-08-11T18:29:26.115Z,100019.00
2018-08-11T18:31:30.521Z,100021.00
2018-08-11T18:33:34.994Z,100015.00
2018-08-11T18:35:39.503Z,100015.00
2018-08-11T18:37:43.933Z,100016.00
2018-08-11T18:39:48.401Z,100020.00
2018-08-11T18:41:52.840Z,100023.00
2018-08-11T18:43:57.354Z,100034.00
2018-08-11T18:46:01.872Z,100020.00
2018-08-11T18:48:08.825Z,100021.00
2018-08-11T18:50:15.334Z,100018.00
2018-08-11T18:52:21.673Z,100015.00
2018-08-11T18:54:26.134Z,100021.00
2018-08-11T18:56:33.151Z,100012.00
2018-08-11T18:58:37.630Z,100019.00
2018-08-11T19:00:42.195Z,100021.00
2018-08-11T19:02:46.990Z,100023.00
2018-08-11T19:04:51.788Z,100022.00
2018-08-11T19:06:56.371Z,100024.00
2018-08-11T19:09:00.889Z,100024.00
2018-08-11T19:11:05.662Z,100026.00
2018-08-11T19:13:10.165Z,100026.00
2018-08-11T19:15:15.194Z,100028.00
2018-08-11T19:17:19.768Z,100034.00
2018-08-11T19:19:24.775Z,100033.00
2018-08-11T19:21:30.267Z,100030.00
2018-08-11T19:23:35.329Z,100035.00
2018-08-11T19:25:40.194Z,100031.00
2018-08-11T19:27:44.870Z,100039.00
2018-08-11T19:29:49.577Z,100043.00
2018-08-11T19:31:54.217Z,100042.00
2018-08-11T19:33:59.959Z,100039.00
2018-08-11T19:36:05.860Z,100045.00
2018-08-11T19:38:10.531Z,100036.00
2018-08-11T19:40:15.676Z,100040.00
2018-08-11T19:42:20.786Z,100037.00
2018-08-11T19:44:25.535Z,100035.00
2018-08-11T19:46:30.698Z,100039.00
2018-08-11T19:48:35.896Z,100041.00
2018-08-11T19:50:40.434Z,100045.00
2018-08-11T19:52:46.125Z,100043.00
2018-08-11T19:54:51.026Z,100034.00
2018-08-11T19:56:55.489Z,100035.00
2018-08-11T19:59:00.223Z,100036.00
2018-08-11T20:01:04.805Z,100044.00
2018-08-11T20:03:09.214Z,100046.00
2018-08-11T20:05:13.698Z,100040.00
2018-08-11T20:07:21.431Z,100035.00
2018-08-11T20:09:26.583Z,100034.00
2018-08-11T20:11:31.929Z,100034.00
2018-08-11T20:13:37.970Z,100040.00
2018-08-11T20:15:43.873Z,100039.00
2018-08-11T20:17:49.165Z,100040.00
2018-08-11T20:19:55.345Z,100036.00
2018-08-11T20:22:00.754Z,100037.00
2018-08-11T20:24:05.520Z,100031.00
2018-08-11T20:26:11.012Z,100026.00
2018-08-11T20:28:16.534Z,100025.00
2018-08-11T20:30:21.342Z,100019.00
2018-08-11T20:32:26.086Z,100032.00
2018-08-11T20:34:31.315Z,100038.00
2018-08-11T20:36:37.588Z,100028.00
2018-08-11T20:38:42.573Z,100030.00
2018-08-11T20:40:48.451Z,100032.00
2018-08-11T20:42:52.918Z,100032.00
2018-08-11T20:44:58.070Z,100036.00
2018-08-11T20:47:03.595Z,100027.00
2018-08-11T20:49:10.338Z,100024.00
2018-08-11T20:51:16.055Z,100026.00
2018-08-11T20:53:21.225Z,100034.00
2018-08-11T20:55:27.775Z,100023.00
2018-08-11T20:57:33.034Z,100018.00
2018-08-11T20:59:37.677Z,100024.00
2018-08-11T21:01:45.354Z,100026.00
2018-08-11T21:03:50.238Z,100024.00
2018-08-11T21:05:54.851Z,100023.00
2018-08-11T21:07:59.394Z,100019.00
2018-08-11T21:10:04.713Z,100023.00
2018-08-11T21:12:09.254Z,100023.00
2018-08-11T21:14:13.718Z,100022.00
2018-08-11T21:16:18.277Z,100027.00
2018-08-11T21:18:22.761Z,100019.00
2018-08-11T21:20:27.277Z,100026.00
2018-08-11T21:22:31.967Z,100029.00
2018-08-11T21:24:36.456Z,100018.00
2018-08-11T21:26:41.054Z,100022.00
2018-08-11T21:28:45.550Z,100018.00
2018-08-11T21:30:50.038Z,100025.00
2018-08-11T21:32:54.719Z,100019.00
2018-08-11T21:34:59.246Z,100023.00
2018-08-11T21:37:04.084Z,100020.00
2018-08-11T21:39:13.405Z,100025.00
2018-08-11T21:41:17.965Z,100021.00
2018-08-11T21:43:22.533Z,100016.00
2018-08-11T21:45:26.978Z,100012.00
2018-08-11T21:47:31.752Z,100022.00
2018-08-11T21:49:36.246Z,100016.00
2018-08-11T21:51:41.670Z,100018.00
2018-08-11T21:53:46.119Z,100017.00
2018-08-11T21:55:50.638Z,100016.00
2018-08-11T21:57:55.275Z,100019.00
2018-08-11T21:59:59.763Z,100019.00
2018-08-11T22:02:04.527Z,100027.00
2018-08-11T22:04:08.958Z,100015.00
2018-08-11T22:06:13.795Z,100031.00
2018-08-11T22:08:18.234Z,100019.00
2018-08-11T22:10:24.466Z,100007.00
2018-08-11T22:12:29.167Z,100009.00
2018-08-11T22:14:33.787Z,100011.00
2018-08-11T22:16:38.514Z,100013.00
2018-08-11T22:18:43.075Z,100016.00
2018-08-11T22:20:47.806Z,100008.00
2018-08-11T22:22:54.843Z,100007.00
2018-08-11T22:25:03.413Z,100009.00
2018-08-11T22:27:08.135Z,100005.00
2018-08-11T22:29:12.582Z,99992.00
2018-08-11T22:31:17.402Z,100009.00
2018-08-11T22:33:21.897Z,99999.00
2018-08-11T22:35:26.636Z,100006.00
2018-08-11T22:37:31.106Z,100004.00
2018-08-11T22:39:35.534Z,99991.00
2018-08-11T22:41:40.355Z,99996.00
2018-08-11T22:43:44.963Z,99991.00
2018-08-11T22:45:49.425Z,99995.00
2018-08-11T22:47:54.613Z,100004.00
2018-08-11T22:49:59.101Z,99990.00
2018-08-11T22:52:03.799Z,99991.00
2018-08-11T22:54:08.592Z,99986.00
2018-08-11T22:56:13.927Z,99988.00
2018-08-11T22:58:18.389Z,99984.00
2018-08-11T23:00:23.154Z,99976.00
2018-08-11T23:02:27.658Z,99983.00
2018-08-11T23:04:32.134Z,99985.00
2018-08-11T23:06:36.678Z,99975.00
2018-08-11T23:08:41.141Z,99971.00
2018-08-11T23:10:45.611Z,99969.00
2018-08-11T23:12:50.178Z,99966.00
2018-08-11T23:14:54.621Z,99964.00
2018-08-11T23:17:00.403Z,99961.00
2018-08-11T23:19:05.406Z,99955.00
2018-08-11T23:21:09.946Z,99957.00
2018-08-11T23:23:14.474Z,99957.00
2018-08-11T23:25:18.949Z,99967.00
2018-08-11T23:27:23.421Z,99951.00
2018-08-11T23:29:27.866Z,99954.00
2018-08-11T23:31:32.306Z,99954.00
2018-08-11T23:33:36.761Z,99956.00
2018-08-11T23:35:41.376Z,99959.00
2018-08-11T23:37:45.854Z,99945.00
2018-08-11T23:39:50.358Z,99947.00
2018-08-11T23:41:54.784Z,99945.00
2018-08-11T23:43:59.330Z,99947.00
2018-08-11T23:46:03.766Z,99946.00
2018-08-11T23:48:08.212Z,99947.00
2018-08-11T23:50:13.738Z,99938.00
2018-08-11T23:52:18.231Z,99937.00
2018-08-11T23:54:22.729Z,99940.00
2018-08-11T23:56:27.355Z,99929.00
2018-08-11T23:58:31.965Z,99927.00
